This is the latest recevied weather packets stored in our database for station/object OM6ABF-11. If no packets are shown the sender has not sent any weather packets the latest 10 day(s).
| Time | Temp. | Humidity | Pressure | Rain* | Wind** | Luminosity | Snow |
|---|---|---|---|---|---|---|---|
| 1777377481 | 16.11° C | 27% | 1021 hPa | - | - | - | - |
| 1777376581 | 16.67° C | 26% | 1021.1 hPa | - | - | - | - |
| 1777375682 | 18.33° C | 25% | 1021.1 hPa | - | - | - | - |
| 1777374782 | 16.11° C | 27% | 1021.2 hPa | - | - | - | - |
| 1777373882 | 15.56° C | 28% | 1021.3 hPa | - | - | - | - |
| 1777372983 | 15.56° C | 29% | 1021.4 hPa | - | - | - | - |
| 1777372084 | 14.44° C | 31% | 1021.6 hPa | - | - | - | - |
| 1777371185 | 13.89° C | 30% | 1021.6 hPa | - | - | - | - |
| 1777370287 | 15° C | 28% | 1021.9 hPa | - | - | - | - |
| 1777369388 | 13.89° C | 29% | 1022 hPa | - | - | - | - |
| 1777368488 | 14.44° C | 29% | 1022.2 hPa | - | - | - | - |
| 1777367589 | 14.44° C | 28% | 1022.4 hPa | - | - | - | - |
| 1777366689 | 16.11° C | 27% | 1022.4 hPa | - | - | - | - |
| 1777365789 | 13.33° C | 29% | 1022.5 hPa | - | - | - | - |
| 1777364890 | 15.56° C | 27% | 1022.5 hPa | - | - | - | - |
| 1777363990 | 13.33° C | 31% | 1022.5 hPa | - | - | - | - |
| 1777363088 | 13.33° C | 30% | 1022.5 hPa | - | - | - | - |
| 1777362188 | 15° C | 29% | 1022.4 hPa | - | - | - | - |
| 1777361287 | 13.33° C | 34% | 1022.7 hPa | - | - | - | - |
| 1777360387 | 10° C | 40% | 1022.8 hPa | - | - | - | - |
| 1777359488 | 10° C | 41% | 1022.9 hPa | - | - | - | - |
| 1777358589 | 8.33° C | 45% | 1023.1 hPa | - | - | - | - |
| 1777357689 | 7.78° C | 46% | 1023.1 hPa | - | - | - | - |
| 1777356790 | 8.89° C | 44% | 1023.1 hPa | - | - | - | - |
| 1777355892 | 8.33° C | 47% | 1023.2 hPa | - | - | - | - |
* Rain since midnight (hover to see other rain measurements)
** Current wind speed in m/s (hover to see current wind gust speed)